createdAt,value
2022-08-14T00:02:31.371Z,20.10
2022-08-14T00:05:00.446Z,20.10
2022-08-14T00:07:29.649Z,20.10
2022-08-14T00:10:49.997Z,20.10
2022-08-14T00:12:56.297Z,20.20
2022-08-14T00:15:26.889Z,20.10
2022-08-14T00:18:00.137Z,20.10
2022-08-14T00:20:41.236Z,20.10
2022-08-14T00:23:16.292Z,20.20
2022-08-14T00:25:59.174Z,20.30
2022-08-14T00:28:36.031Z,20.30
2022-08-14T00:31:06.745Z,20.30
2022-08-14T00:33:52.330Z,20.30
2022-08-14T00:36:37.250Z,20.30
2022-08-14T00:39:13.977Z,20.30
2022-08-14T00:41:43.129Z,20.20
2022-08-14T00:44:11.772Z,20.10
2022-08-14T00:46:41.096Z,20.00
2022-08-14T00:49:14.782Z,20.00
2022-08-14T00:51:44.665Z,19.90
2022-08-14T00:54:21.018Z,19.80
2022-08-14T00:56:55.285Z,19.80
2022-08-14T00:59:25.430Z,19.70
2022-08-14T01:01:55.906Z,19.70
2022-08-14T01:04:38.169Z,19.70
2022-08-14T01:07:21.446Z,19.70
2022-08-14T01:09:51.510Z,19.80
2022-08-14T01:12:26.938Z,19.90
2022-08-14T01:14:59.644Z,19.90
2022-08-14T01:17:50.637Z,19.90
2022-08-14T01:20:40.882Z,19.90
2022-08-14T01:23:16.719Z,19.90
2022-08-14T01:25:49.124Z,20.00
2022-08-14T01:28:46.601Z,20.00
2022-08-14T01:31:09.887Z,20.10
2022-08-14T01:33:59.232Z,20.00
2022-08-14T01:36:35.557Z,20.10
2022-08-14T01:39:09.680Z,20.00
2022-08-14T01:41:43.343Z,20.00
2022-08-14T01:44:32.458Z,19.90
2022-08-14T01:47:05.946Z,19.90
2022-08-14T01:49:35.678Z,19.80
2022-08-14T01:52:13.431Z,19.90
2022-08-14T01:55:01.531Z,19.90
2022-08-14T01:57:49.271Z,19.90
2022-08-14T02:00:19.194Z,19.90
2022-08-14T02:05:17.525Z,20.00
2022-08-14T02:10:29.099Z,20.00
2022-08-14T02:12:59.565Z,20.00
2022-08-14T02:15:28.671Z,20.00
2022-08-14T02:17:57.539Z,20.00
2022-08-14T02:20:27.970Z,20.10
2022-08-14T02:22:56.630Z,20.00
2022-08-14T02:25:29.835Z,20.00
2022-08-14T02:28:24.608Z,19.90
2022-08-14T02:30:48.433Z,19.90
2022-08-14T02:33:23.370Z,19.80
2022-08-14T02:36:05.150Z,19.70
2022-08-14T02:38:42.021Z,19.50
2022-08-14T02:41:14.721Z,19.40
2022-08-14T02:43:48.261Z,19.40
2022-08-14T02:46:20.399Z,19.30
2022-08-14T02:49:04.523Z,19.40
2022-08-14T02:51:34.752Z,19.40
2022-08-14T02:54:07.229Z,19.30
2022-08-14T02:57:15.771Z,19.40
2022-08-14T02:59:29.575Z,19.40
2022-08-14T03:02:04.536Z,19.40
2022-08-14T03:04:34.542Z,19.50
2022-08-14T03:07:07.096Z,19.50
2022-08-14T03:12:31.476Z,19.50
2022-08-14T03:15:06.355Z,19.50
2022-08-14T03:17:41.342Z,19.40
2022-08-14T03:20:27.795Z,19.30
2022-08-14T03:23:00.247Z,19.30
2022-08-14T03:25:34.306Z,19.30
2022-08-14T03:28:14.591Z,19.30
2022-08-14T03:30:57.583Z,19.30
2022-08-14T03:33:37.886Z,19.30
2022-08-14T03:37:37.551Z,19.30
2022-08-14T03:39:15.183Z,19.20
2022-08-14T03:41:50.038Z,19.20
2022-08-14T03:45:33.337Z,19.10
2022-08-14T03:47:09.208Z,19.10
2022-08-14T03:49:43.929Z,19.10
2022-08-14T03:52:18.012Z,19.00
2022-08-14T03:55:03.652Z,19.10
2022-08-14T03:57:32.471Z,19.20
2022-08-14T04:00:04.865Z,19.20
2022-08-14T04:02:47.199Z,19.30
2022-08-14T04:07:50.021Z,19.40
2022-08-14T04:10:36.481Z,19.50
2022-08-14T04:13:06.262Z,19.60
2022-08-14T04:15:52.820Z,19.60
2022-08-14T04:18:26.372Z,19.80
2022-08-14T04:20:55.912Z,19.80
2022-08-14T04:23:32.823Z,19.80
2022-08-14T04:26:03.047Z,19.90
2022-08-14T04:29:08.531Z,19.90
2022-08-14T04:32:58.963Z,19.90
2022-08-14T04:34:20.813Z,20.00
2022-08-14T04:37:10.664Z,20.10
2022-08-14T04:39:57.931Z,20.10
2022-08-14T04:42:47.255Z,20.20
2022-08-14T04:45:21.103Z,20.30
2022-08-14T04:48:10.164Z,20.30
2022-08-14T04:50:45.049Z,20.10
2022-08-14T04:53:15.441Z,20.10
2022-08-14T04:55:46.065Z,20.10
2022-08-14T04:58:21.691Z,20.10
2022-08-14T05:01:01.404Z,20.10
2022-08-14T05:03:33.293Z,20.10
2022-08-14T05:06:03.014Z,20.10
2022-08-14T05:08:57.352Z,20.20
2022-08-14T05:11:21.056Z,20.20
2022-08-14T05:16:39.148Z,20.30
2022-08-14T05:19:17.871Z,20.40
2022-08-14T05:22:01.069Z,20.40
2022-08-14T05:24:45.251Z,20.50
2022-08-14T05:27:22.348Z,20.50
2022-08-14T05:29:53.625Z,20.50
2022-08-14T05:32:27.563Z,20.50
2022-08-14T05:34:59.551Z,20.60
2022-08-14T05:37:30.080Z,20.60
2022-08-14T05:40:00.482Z,20.60
2022-08-14T05:42:32.179Z,20.70
2022-08-14T05:45:04.443Z,20.70
2022-08-14T05:47:39.591Z,20.80
2022-08-14T05:50:18.825Z,20.90
2022-08-14T05:52:50.823Z,21.10
2022-08-14T05:55:21.902Z,21.30
2022-08-14T05:57:54.109Z,21.50
2022-08-14T06:00:28.238Z,21.60
2022-08-14T06:03:00.130Z,21.80
2022-08-14T06:05:30.928Z,22.10
2022-08-14T06:07:59.751Z,22.40
2022-08-14T06:10:29.074Z,22.70
2022-08-14T06:12:58.611Z,23.00
2022-08-14T06:15:30.423Z,23.20
2022-08-14T06:18:00.447Z,23.30
2022-08-14T06:20:30.889Z,23.50
2022-08-14T06:23:00.256Z,23.70
2022-08-14T06:25:28.853Z,23.90
2022-08-14T06:28:03.911Z,23.90
2022-08-14T06:30:45.859Z,23.60
2022-08-14T06:33:16.687Z,23.50
2022-08-14T06:35:48.815Z,23.50
2022-08-14T06:38:19.022Z,23.30
2022-08-14T06:40:48.243Z,23.20
2022-08-14T06:43:17.634Z,23.30
2022-08-14T06:45:53.984Z,23.30
2022-08-14T06:48:24.204Z,23.40
2022-08-14T06:50:55.167Z,23.40
2022-08-14T06:53:28.306Z,23.40
2022-08-14T06:58:32.329Z,23.70
2022-08-14T07:01:25.066Z,23.80
2022-08-14T07:04:23.684Z,24.00
2022-08-14T07:06:59.077Z,24.10
2022-08-14T07:09:40.503Z,24.20
2022-08-14T07:12:52.021Z,24.30
2022-08-14T07:15:07.447Z,24.50
2022-08-14T07:17:39.879Z,24.50
2022-08-14T07:20:09.825Z,24.50
2022-08-14T07:22:56.496Z,24.50
2022-08-14T07:25:32.668Z,24.50
2022-08-14T07:28:02.404Z,24.60
2022-08-14T07:30:34.118Z,24.70
2022-08-14T07:33:04.641Z,24.70
2022-08-14T07:35:43.079Z,24.80
2022-08-14T07:38:24.542Z,24.80
2022-08-14T07:40:53.601Z,25.00
2022-08-14T07:43:23.039Z,25.00
2022-08-14T07:45:54.017Z,25.00
2022-08-14T07:48:24.919Z,24.90
2022-08-14T07:53:36.512Z,25.00
2022-08-14T07:56:48.281Z,25.10
2022-08-14T07:59:10.466Z,25.70
2022-08-14T08:01:48.193Z,25.40
2022-08-14T08:04:27.412Z,25.50
2022-08-14T08:06:56.608Z,25.50
2022-08-14T08:09:31.709Z,25.50
2022-08-14T08:12:09.300Z,25.60
2022-08-14T08:14:55.799Z,25.60
2022-08-14T08:17:34.745Z,25.60
2022-08-14T08:20:12.160Z,25.70
2022-08-14T08:22:48.356Z,25.70
2022-08-14T08:25:20.118Z,25.70
2022-08-14T08:27:59.054Z,25.70
2022-08-14T08:30:29.002Z,25.80
2022-08-14T08:32:58.221Z,26.00
2022-08-14T08:35:46.509Z,26.00
2022-08-14T08:39:18.838Z,26.00
2022-08-14T08:41:09.628Z,26.20
2022-08-14T08:43:46.109Z,25.90
2022-08-14T08:46:21.798Z,25.70
2022-08-14T08:51:25.128Z,25.20
2022-08-14T08:54:00.682Z,25.20
2022-08-14T08:56:44.413Z,25.50
2022-08-14T08:59:21.813Z,26.00
2022-08-14T09:01:56.286Z,26.30
2022-08-14T09:04:30.720Z,26.60
2022-08-14T09:07:09.059Z,27.10
2022-08-14T09:09:54.008Z,27.20
2022-08-14T09:12:32.631Z,27.20
2022-08-14T09:15:02.521Z,27.20
2022-08-14T09:17:31.425Z,27.30
2022-08-14T09:20:02.071Z,27.30
2022-08-14T09:22:36.427Z,27.30
2022-08-14T09:25:07.667Z,27.20
2022-08-14T09:27:39.670Z,27.50
2022-08-14T09:30:31.046Z,27.70
2022-08-14T09:33:09.159Z,27.80
2022-08-14T09:38:19.518Z,28.30
2022-08-14T09:41:00.521Z,28.30
2022-08-14T09:43:34.252Z,28.30
2022-08-14T09:46:07.851Z,28.40
2022-08-14T09:48:38.151Z,28.50
2022-08-14T09:54:18.400Z,28.40
2022-08-14T09:56:31.089Z,28.40
2022-08-14T09:59:15.245Z,28.50
2022-08-14T10:01:45.946Z,29.00
2022-08-14T10:04:33.072Z,29.20
2022-08-14T10:07:04.250Z,29.50
2022-08-14T10:09:34.668Z,29.30
2022-08-14T10:12:18.970Z,29.20
2022-08-14T10:14:57.180Z,29.20
2022-08-14T10:17:32.964Z,29.20
2022-08-14T10:20:08.361Z,29.30
2022-08-14T10:23:12.708Z,29.30
2022-08-14T10:25:45.380Z,29.00
2022-08-14T10:29:03.394Z,28.90
2022-08-14T10:31:08.547Z,29.00
2022-08-14T10:33:39.599Z,28.80
2022-08-14T10:36:08.310Z,28.60
2022-08-14T10:38:44.806Z,28.60
2022-08-14T10:41:20.660Z,28.50
2022-08-14T10:44:06.114Z,28.50
2022-08-14T10:47:40.959Z,28.40
2022-08-14T10:49:30.990Z,28.60
2022-08-14T10:52:05.992Z,29.10
2022-08-14T10:54:40.194Z,29.20
2022-08-14T10:57:15.197Z,29.30
2022-08-14T10:59:48.230Z,29.40
2022-08-14T11:02:45.072Z,29.70
2022-08-14T11:05:14.770Z,29.80
2022-08-14T11:07:56.438Z,30.30
2022-08-14T11:10:27.737Z,30.30
2022-08-14T11:12:57.751Z,30.40
2022-08-14T11:15:28.591Z,30.60
2022-08-14T11:18:02.345Z,30.70
2022-08-14T11:20:32.519Z,30.80
2022-08-14T11:23:01.963Z,31.00
2022-08-14T11:25:43.350Z,31.10
2022-08-14T11:28:14.814Z,31.00
2022-08-14T11:30:54.012Z,30.70
2022-08-14T11:33:29.454Z,30.60
2022-08-14T11:36:00.498Z,30.50
2022-08-14T11:38:37.847Z,30.40
2022-08-14T11:41:07.543Z,30.40
2022-08-14T11:43:40.565Z,30.30
2022-08-14T11:46:17.977Z,30.30
2022-08-14T11:49:06.053Z,30.50
2022-08-14T11:57:04.769Z,30.80
2022-08-14T11:59:34.177Z,30.80
2022-08-14T12:03:00.517Z,30.90
2022-08-14T12:05:09.265Z,30.90
2022-08-14T12:07:49.246Z,31.20
2022-08-14T12:10:26.273Z,31.80
2022-08-14T12:13:12.786Z,31.90
2022-08-14T12:15:44.563Z,31.80
2022-08-14T12:18:19.454Z,31.70
2022-08-14T12:20:52.661Z,31.70
2022-08-14T12:23:23.585Z,31.50
2022-08-14T12:26:24.964Z,31.10
2022-08-14T12:28:59.441Z,31.50
2022-08-14T12:31:36.152Z,32.30
2022-08-14T12:34:08.693Z,32.40
2022-08-14T12:36:40.425Z,32.90
2022-08-14T12:39:18.784Z,32.40
2022-08-14T12:41:57.208Z,32.30
2022-08-14T12:44:33.023Z,32.30
2022-08-14T12:47:06.205Z,32.40
2022-08-14T12:49:35.307Z,32.50
2022-08-14T12:52:11.876Z,32.40
2022-08-14T12:54:57.264Z,31.70
2022-08-14T12:57:35.260Z,31.30
2022-08-14T13:00:22.219Z,31.20
2022-08-14T13:02:55.252Z,30.70
2022-08-14T13:05:25.252Z,30.60
2022-08-14T13:07:59.273Z,30.70
2022-08-14T13:10:51.408Z,30.60
2022-08-14T13:13:19.440Z,30.40
2022-08-14T13:15:56.118Z,30.40
2022-08-14T13:18:27.814Z,30.30
2022-08-14T13:21:01.111Z,30.10
2022-08-14T13:23:37.395Z,30.20
2022-08-14T13:26:08.008Z,30.50
2022-08-14T13:29:02.057Z,31.10
2022-08-14T13:31:30.184Z,31.40
2022-08-14T13:34:00.247Z,31.30
2022-08-14T13:36:54.873Z,31.40
2022-08-14T13:39:20.748Z,31.20
2022-08-14T13:41:55.594Z,31.40
2022-08-14T13:44:27.278Z,31.60
2022-08-14T13:46:58.242Z,31.90
2022-08-14T13:49:29.117Z,31.80
2022-08-14T13:51:59.124Z,31.70
2022-08-14T13:54:31.293Z,31.50
2022-08-14T13:57:01.141Z,31.50
2022-08-14T13:59:37.179Z,31.70
2022-08-14T14:02:08.069Z,31.70
2022-08-14T14:04:40.621Z,31.70
2022-08-14T14:07:11.628Z,31.80
2022-08-14T14:09:52.752Z,32.10
2022-08-14T14:12:40.652Z,32.10
2022-08-14T14:15:11.232Z,31.80
2022-08-14T14:17:40.525Z,31.50
2022-08-14T14:20:35.243Z,30.80
2022-08-14T14:23:09.498Z,29.90
2022-08-14T14:25:47.991Z,29.70
2022-08-14T14:28:24.105Z,28.40
2022-08-14T14:30:57.203Z,27.20
2022-08-14T14:33:49.532Z,25.60
2022-08-14T14:38:52.530Z,24.80
2022-08-14T14:41:23.647Z,24.50
2022-08-14T14:43:54.138Z,24.40
2022-08-14T14:46:36.471Z,24.20
2022-08-14T14:49:06.594Z,24.10
2022-08-14T14:51:41.768Z,24.10
2022-08-14T14:54:13.333Z,24.20
2022-08-14T14:56:50.917Z,24.30
2022-08-14T14:59:22.901Z,25.80
2022-08-14T15:01:52.056Z,24.30
2022-08-14T15:04:21.381Z,24.10
2022-08-14T15:06:50.287Z,24.10
2022-08-14T15:09:23.650Z,23.90
2022-08-14T15:11:54.026Z,23.90
2022-08-14T15:14:55.853Z,23.90
2022-08-14T15:17:11.908Z,23.80
2022-08-14T15:19:42.122Z,24.00
2022-08-14T15:22:28.889Z,24.00
2022-08-14T15:24:59.256Z,24.00
2022-08-14T15:27:31.538Z,24.10
2022-08-14T15:30:00.958Z,24.10
2022-08-14T15:35:00.598Z,24.10
2022-08-14T15:37:33.704Z,24.10
2022-08-14T15:40:03.502Z,24.10
2022-08-14T15:42:40.152Z,24.00
2022-08-14T15:45:11.701Z,23.90
2022-08-14T15:47:41.552Z,23.90
2022-08-14T15:50:13.199Z,23.90
2022-08-14T15:52:43.199Z,23.80
2022-08-14T15:55:15.488Z,23.80
2022-08-14T15:58:02.448Z,23.80
2022-08-14T16:00:53.074Z,23.70
2022-08-14T16:03:27.813Z,23.60
2022-08-14T16:06:04.059Z,23.60
2022-08-14T16:08:32.828Z,23.50
2022-08-14T16:11:04.037Z,23.50
2022-08-14T16:13:42.556Z,23.50
2022-08-14T16:16:47.462Z,23.60
2022-08-14T16:19:07.311Z,23.60
2022-08-14T16:21:37.565Z,23.60
2022-08-14T16:24:06.852Z,23.50
2022-08-14T16:27:00.646Z,23.50
2022-08-14T16:29:31.426Z,23.40
2022-08-14T16:32:01.610Z,23.20
2022-08-14T16:34:45.791Z,23.10
2022-08-14T16:37:18.971Z,23.00
2022-08-14T16:39:48.749Z,23.00
2022-08-14T16:42:39.044Z,22.90
2022-08-14T16:45:10.484Z,22.80
2022-08-14T16:47:39.977Z,22.70
2022-08-14T16:50:11.740Z,22.70
2022-08-14T16:52:54.470Z,22.70
2022-08-14T16:55:30.459Z,22.60
2022-08-14T16:57:59.536Z,22.60
2022-08-14T17:00:33.043Z,22.60
2022-08-14T17:03:13.090Z,22.60
2022-08-14T17:05:42.996Z,22.50
2022-08-14T17:08:33.028Z,22.50
2022-08-14T17:11:10.645Z,22.40
2022-08-14T17:13:58.408Z,22.30
2022-08-14T17:16:37.317Z,22.20
2022-08-14T17:19:13.507Z,22.10
2022-08-14T17:21:47.546Z,22.00
2022-08-14T17:27:07.924Z,21.80
2022-08-14T17:29:44.780Z,21.70
2022-08-14T17:32:56.227Z,21.70
2022-08-14T17:35:26.612Z,21.60
2022-08-14T17:38:38.185Z,21.50
2022-08-14T17:41:23.530Z,21.40
2022-08-14T17:43:55.065Z,21.30
2022-08-14T17:46:36.608Z,21.30
2022-08-14T17:49:15.595Z,21.20
2022-08-14T17:52:16.834Z,21.10
2022-08-14T17:54:52.697Z,21.10
2022-08-14T17:57:29.575Z,21.00
2022-08-14T18:00:06.583Z,20.90
2022-08-14T18:02:36.299Z,20.90
2022-08-14T18:05:08.452Z,20.90
2022-08-14T18:08:00.075Z,20.90
2022-08-14T18:10:54.885Z,20.90
2022-08-14T18:13:16.396Z,20.90
2022-08-14T18:15:51.019Z,20.80
2022-08-14T18:18:20.918Z,20.80
2022-08-14T18:23:50.973Z,20.70
2022-08-14T18:26:37.091Z,20.70
2022-08-14T18:29:15.112Z,20.70
2022-08-14T18:31:45.394Z,20.70
2022-08-14T18:34:31.899Z,20.70
2022-08-14T18:37:14.325Z,20.70
2022-08-14T18:40:01.830Z,20.80
2022-08-14T18:42:46.811Z,21.00
2022-08-14T18:45:18.929Z,21.00
2022-08-14T18:48:14.466Z,21.00
2022-08-14T18:50:52.611Z,20.90
2022-08-14T18:53:24.950Z,20.70
2022-08-14T18:55:56.325Z,20.50
2022-08-14T18:58:34.402Z,20.30
2022-08-14T19:01:04.321Z,20.20
2022-08-14T19:03:59.059Z,20.10
2022-08-14T19:06:56.393Z,20.00
2022-08-14T19:09:44.789Z,19.80
2022-08-14T19:12:44.311Z,19.70
2022-08-14T19:15:20.132Z,19.60
2022-08-14T19:18:10.932Z,19.70
2022-08-14T19:20:47.913Z,19.70
2022-08-14T19:23:18.199Z,19.70
2022-08-14T19:25:51.955Z,19.80
2022-08-14T19:28:31.571Z,19.80
2022-08-14T19:31:21.037Z,19.80
2022-08-14T19:33:52.826Z,19.80
2022-08-14T19:36:29.275Z,19.80
2022-08-14T19:39:04.372Z,19.80
2022-08-14T19:41:35.490Z,19.80
2022-08-14T19:44:10.447Z,19.80
2022-08-14T19:47:01.424Z,19.90
2022-08-14T19:50:30.225Z,19.80
2022-08-14T19:52:23.210Z,19.80
2022-08-14T19:54:53.178Z,19.80
2022-08-14T19:57:22.393Z,19.80
2022-08-14T20:00:00.861Z,19.80
2022-08-14T20:02:30.482Z,19.70
2022-08-14T20:05:03.843Z,19.70
2022-08-14T20:08:09.069Z,19.70
2022-08-14T20:11:05.013Z,19.60
2022-08-14T20:13:23.656Z,19.50
2022-08-14T20:18:50.797Z,19.40
2022-08-14T20:21:24.843Z,19.30
2022-08-14T20:24:30.608Z,19.20
2022-08-14T20:27:20.201Z,19.20
2022-08-14T20:30:28.845Z,19.10
2022-08-14T20:32:53.606Z,19.00
2022-08-14T20:35:35.578Z,18.90
2022-08-14T20:38:28.979Z,18.90
2022-08-14T20:40:58.406Z,18.90
2022-08-14T20:43:45.526Z,18.80
2022-08-14T20:46:16.243Z,18.80
2022-08-14T20:48:57.941Z,18.80
2022-08-14T20:54:07.774Z,19.00
2022-08-14T20:56:40.483Z,18.90
2022-08-14T20:59:17.802Z,18.90
2022-08-14T21:01:51.626Z,18.90
2022-08-14T21:04:26.521Z,19.00
2022-08-14T21:07:25.848Z,19.00
2022-08-14T21:10:06.405Z,18.90
2022-08-14T21:12:36.209Z,18.90
2022-08-14T21:15:11.096Z,18.90
2022-08-14T21:17:43.182Z,18.80
2022-08-14T21:20:25.546Z,18.90
2022-08-14T21:23:00.329Z,18.90
2022-08-14T21:25:31.907Z,18.90
2022-08-14T21:28:08.565Z,18.90
2022-08-14T21:30:57.204Z,18.80
2022-08-14T21:33:27.563Z,18.80
2022-08-14T21:35:58.414Z,18.80
2022-08-14T21:41:00.171Z,18.80
2022-08-14T21:43:30.088Z,18.70
2022-08-14T21:45:59.052Z,18.70
2022-08-14T21:48:32.052Z,18.70
2022-08-14T21:51:54.172Z,18.70
2022-08-14T21:53:58.817Z,18.70
2022-08-14T21:56:38.600Z,18.60
2022-08-14T21:59:09.472Z,18.60
2022-08-14T22:02:01.508Z,18.60
2022-08-14T22:04:33.840Z,18.50
2022-08-14T22:07:10.886Z,18.40
2022-08-14T22:09:42.911Z,18.30
2022-08-14T22:12:45.399Z,18.20
2022-08-14T22:15:02.472Z,18.20
2022-08-14T22:17:44.400Z,18.20
2022-08-14T22:20:16.262Z,18.20
2022-08-14T22:22:45.638Z,18.10
2022-08-14T22:25:17.268Z,18.10
2022-08-14T22:27:55.378Z,18.00
2022-08-14T22:30:25.770Z,18.00
2022-08-14T22:32:57.747Z,17.90
2022-08-14T22:35:29.375Z,17.90
2022-08-14T22:38:34.866Z,17.80
2022-08-14T22:41:09.784Z,17.80
2022-08-14T22:43:38.949Z,17.90
2022-08-14T22:46:14.868Z,17.80
2022-08-14T22:48:49.494Z,17.80
2022-08-14T22:51:21.601Z,17.80
2022-08-14T22:53:52.351Z,17.80
2022-08-14T22:56:29.386Z,17.80
2022-08-14T22:58:59.239Z,17.70
2022-08-14T23:01:55.729Z,17.70
2022-08-14T23:04:35.272Z,17.70
2022-08-14T23:07:22.295Z,17.70
2022-08-14T23:09:55.936Z,17.80
2022-08-14T23:12:29.535Z,17.90
2022-08-14T23:14:59.847Z,17.90
2022-08-14T23:17:38.601Z,18.00
2022-08-14T23:20:18.765Z,18.00
2022-08-14T23:22:51.818Z,18.00
2022-08-14T23:25:57.870Z,18.00
2022-08-14T23:28:34.615Z,18.10
2022-08-14T23:31:02.351Z,18.10
2022-08-14T23:33:35.044Z,18.10
2022-08-14T23:36:04.969Z,18.10
2022-08-14T23:38:55.562Z,18.00
2022-08-14T23:41:25.081Z,18.10
2022-08-14T23:43:55.276Z,18.20
2022-08-14T23:46:34.776Z,18.20
2022-08-14T23:49:05.119Z,18.20
2022-08-14T23:51:36.651Z,18.20
2022-08-14T23:54:48.695Z,18.20
2022-08-14T23:56:59.946Z,18.30
2022-08-14T23:59:31.823Z,18.50
